»·PEaware :: AAL225 KPSP-KBFL

AAL225 :: KPSP-KBFL

FLIGHT INFORMATION

Flight Status: Arrived
Operator:
American Airlines
More flights by this operator :: More flights under this callsign
Pilot: Michael R. (16974)
Aircraft: BOEING 737-800
(B738)
More flights by this aircraft type
Origin: KPSP Palm Springs Intl
United States
Destination: KBFL Meadows
United States
More flights between these airports :: More routes between these airports
Route: +CATH1 PSP V386 PMD FASTO2
File this flight plan on PilotEdge
Remarks:
Altitude:
(Current/Filed)
24,000ft
Speed:
(Current/Filed)
413kts
Departed: 03-Oct-18 07:21 PM
Arrived: 03-Oct-18 08:01 PM
Distance/Time
Traveled:
158nm/0:39
Distance/Time
To Go:
Arrived

Flight Plot

Page will automatically refresh every two minutes.

Flight plan parsing failed; only flown route is shown


Map Options




Map Legend


Flown Route
Filed Route
Departure Airport
Arrival Airport
Navaid (VOR, NDB)
Fix

Horizontal Profiles

Position Reports

Time Latitude Longitude Heading Altitude Ground
Speed
03-Oct-18 19:00 33.822532 -116.506214 324 420ft 0kts
03-Oct-18 19:01 33.822532 -116.506214 324 420ft 0kts
03-Oct-18 19:02 33.822532 -116.506214 324 420ft 0kts
03-Oct-18 19:03 33.822532 -116.506214 324 420ft 0kts
03-Oct-18 19:04 33.822532 -116.506214 324 420ft 0kts
03-Oct-18 19:05 33.822532 -116.506214 324 420ft 0kts
03-Oct-18 19:06 33.822532 -116.506214 324 420ft 0kts
03-Oct-18 19:07 33.822532 -116.506214 324 420ft 0kts
03-Oct-18 19:08 33.822532 -116.506214 324 420ft 0kts
03-Oct-18 19:09 33.822532 -116.506214 324 420ft 0kts
03-Oct-18 19:10 33.822532 -116.506214 324 420ft 0kts
03-Oct-18 19:11 33.822532 -116.506214 324 420ft 0kts
03-Oct-18 19:12 33.822105 -116.505884 353 419ft 1kts
03-Oct-18 19:13 33.821914 -116.506000 45 418ft 0kts
03-Oct-18 19:14 33.821914 -116.506000 45 418ft 0kts
03-Oct-18 19:15 33.821914 -116.506000 45 418ft 0kts
03-Oct-18 19:16 33.822830 -116.504607 53 418ft 3kts
03-Oct-18 19:17 33.822870 -116.504542 53 418ft 0kts
03-Oct-18 19:18 33.821505 -116.502430 143 411ft 23kts
03-Oct-18 19:19 33.818601 -116.499732 108 405ft 3kts
03-Oct-18 19:20 33.818558 -116.499398 94 405ft 0kts
03-Oct-18 19:21 33.818620 -116.498575 63 404ft 6kts
03-Oct-18 19:22 33.819427 -116.498561 324 405ft 0kts
03-Oct-18 19:23 33.831948 -116.509675 323 537ft 154kts
03-Oct-18 19:24 33.868032 -116.542152 321 3212ft 169kts
03-Oct-18 19:25 33.911013 -116.575567 349 5731ft 208kts
03-Oct-18 19:26 33.956170 -116.526398 86 8312ft 251kts
03-Oct-18 19:27 33.921258 -116.465544 142 11282ft 225kts
03-Oct-18 19:28 33.863046 -116.419688 142 12407ft 301kts
03-Oct-18 19:29 33.842297 -116.324397 78 15504ft 326kts
03-Oct-18 19:30 33.910669 -116.238053 20 17595ft 370kts
03-Oct-18 19:31 34.011557 -116.244197 326 18883ft 396kts
03-Oct-18 19:32 34.070660 -116.332277 272 21024ft 359kts
03-Oct-18 19:33 34.099327 -116.445454 281 23853ft 346kts
03-Oct-18 19:34 34.136367 -116.556696 282 23915ft 386kts
03-Oct-18 19:35 34.177841 -116.681040 283 23917ft 419kts
03-Oct-18 19:36 34.220654 -116.809333 283 23958ft 425kts
03-Oct-18 19:37 34.264689 -116.941567 284 23991ft 421kts
03-Oct-18 19:38 34.307867 -117.071858 285 23993ft 416kts
03-Oct-18 19:39 34.350557 -117.201130 286 23995ft 415kts
03-Oct-18 19:40 34.392756 -117.329285 286 23989ft 413kts
03-Oct-18 19:41 34.435005 -117.457991 286 23962ft 397kts
03-Oct-18 19:42 34.474726 -117.579431 286 23988ft 388kts
03-Oct-18 19:43 34.513548 -117.698847 285 23972ft 387kts
03-Oct-18 19:44 34.552190 -117.818182 286 21991ft 380kts
03-Oct-18 19:45 34.590491 -117.936846 286 20369ft 374kts
03-Oct-18 19:46 34.628105 -118.052808 291 19067ft 371kts
03-Oct-18 19:47 34.694548 -118.146907 310 17883ft 377kts
03-Oct-18 19:48 34.765645 -118.238623 309 16576ft 369kts
03-Oct-18 19:49 34.834160 -118.328046 309 15237ft 347kts
03-Oct-18 19:50 34.894875 -118.407435 309 14209ft 313kts
03-Oct-18 19:51 34.942404 -118.469827 310 13520ft 304kts
03-Oct-18 19:52 35.008107 -118.556268 310 12396ft 300kts
03-Oct-18 19:53 35.068044 -118.626260 315 11550ft 297kts
03-Oct-18 19:54 35.115640 -118.679635 315 11024ft 292kts
03-Oct-18 19:55 35.179097 -118.751116 315 9767ft 277kts
03-Oct-18 19:56 35.222362 -118.801519 314 7821ft 242kts
03-Oct-18 19:57 35.266726 -118.854755 314 5712ft 209kts
03-Oct-18 19:58 35.306614 -118.899632 317 4018ft 177kts
03-Oct-18 19:59 35.338098 -118.939224 313 3023ft 150kts
03-Oct-18 20:00 35.366017 -118.974663 316 2274ft 145kts
03-Oct-18 20:01 35.394939 -119.009289 316 1437ft 145kts
03-Oct-18 20:02 35.423047 -119.043152 317 738ft 143kts
03-Oct-18 20:03 35.444840 -119.069402 315 512ft 34kts
03-Oct-18 20:04 35.445558 -119.068136 134 511ft 17kts
03-Oct-18 20:05 35.441797 -119.063568 136 505ft 20kts
03-Oct-18 20:06 35.437318 -119.058108 135 499ft 24kts
03-Oct-18 20:07 35.432343 -119.052153 135 496ft 25kts
03-Oct-18 20:08 35.430013 -119.047963 79 496ft 7kts

Navigation Log

Ident Type
Flight plan parsing failed, navigation log unavailable